KGRY

Green Canyon 338

Green Canyon 338, Louisiana, USA
METAR KGRY 231100Z AUTO 34022G30KT 10SM FEW025 SCT030 17/04 A3010 RMK A01
Observed Flight Rules
Jan-23 @ 11:00 UTC (51 minutes ago) Visual Flight Rules
Wind Visibility Clouds
340° at 22 knots
 Gusting to 30 knots
10 miles
  • Few at 2,500' AGL
  • Scattered at 3,000' AGL
Temperatures Readings
Current 17°C / 63°F
Dewpoint 4°C / 39°F
Humidity 42%
Altimeter 30.1" Hg
Pressure 1019 hPa
Elevation 58
METAR KGRY 231100Z AUTO 34022G30KT 10SM FEW025 SCT030 17/04 A3010 RMK A01
Observed Flight Rules
Jan-23 @ 11:00 UTC
(51 minutes ago)
VFR
Wind Visibility
340° at 22 knots
 Gusting to 30 knots
10 miles
Clouds
  • Few at 2,500' AGL
  • Scattered at 3,000' AGL
Temperature Dewpoint
17°C / 63°F 4°C / 39°F
Humidity Altimeter Pressure
42% 30.1" Hg 1019 hPa